sensor_id;sensor_type;location;lat;lon;timestamp;P1;durP1;ratioP1;P2;durP2;ratioP2
61785;SDS011;47692;53.714;11.372;2023-03-11T00:00:39;8.63;;;3.92;;
61785;SDS011;47692;53.714;11.372;2023-03-11T00:03:08;9.50;;;4.47;;
61785;SDS011;47692;53.714;11.372;2023-03-11T00:05:35;7.95;;;3.70;;
61785;SDS011;47692;53.714;11.372;2023-03-11T00:08:02;12.07;;;4.80;;
61785;SDS011;47692;53.714;11.372;2023-03-11T00:10:30;9.90;;;4.45;;
61785;SDS011;47692;53.714;11.372;2023-03-11T00:12:58;7.28;;;4.13;;
61785;SDS011;47692;53.714;11.372;2023-03-11T00:15:25;8.18;;;3.97;;
61785;SDS011;47692;53.714;11.372;2023-03-11T00:17:51;8.57;;;4.47;;
61785;SDS011;47692;53.714;11.372;2023-03-11T00:20:18;9.52;;;5.10;;
61785;SDS011;47692;53.714;11.372;2023-03-11T00:22:45;8.35;;;4.45;;
61785;SDS011;47692;53.714;11.372;2023-03-11T00:25:11;11.35;;;4.35;;
61785;SDS011;47692;53.714;11.372;2023-03-11T00:27:37;10.30;;;4.38;;
61785;SDS011;47692;53.714;11.372;2023-03-11T00:30:02;10.52;;;5.32;;
61785;SDS011;47692;53.714;11.372;2023-03-11T00:32:28;8.07;;;4.43;;
61785;SDS011;47692;53.714;11.372;2023-03-11T00:34:54;11.07;;;4.32;;
61785;SDS011;47692;53.714;11.372;2023-03-11T00:37:19;11.07;;;4.13;;
61785;SDS011;47692;53.714;11.372;2023-03-11T00:39:44;10.73;;;4.28;;
61785;SDS011;47692;53.714;11.372;2023-03-11T00:42:10;7.78;;;3.92;;
61785;SDS011;47692;53.714;11.372;2023-03-11T00:44:35;8.88;;;4.38;;
61785;SDS011;47692;53.714;11.372;2023-03-11T00:47:00;9.00;;;3.80;;
61785;SDS011;47692;53.714;11.372;2023-03-11T00:49:26;8.20;;;4.20;;
61785;SDS011;47692;53.714;11.372;2023-03-11T00:51:51;10.43;;;4.15;;
61785;SDS011;47692;53.714;11.372;2023-03-11T00:54:16;5.65;;;3.53;;
61785;SDS011;47692;53.714;11.372;2023-03-11T00:56:42;12.43;;;4.10;;
61785;SDS011;47692;53.714;11.372;2023-03-11T00:59:07;10.95;;;3.75;;
61785;SDS011;47692;53.714;11.372;2023-03-11T01:01:32;7.70;;;3.88;;
61785;SDS011;47692;53.714;11.372;2023-03-11T01:03:57;9.27;;;4.20;;
61785;SDS011;47692;53.714;11.372;2023-03-11T01:06:23;12.07;;;4.80;;
61785;SDS011;47692;53.714;11.372;2023-03-11T01:08:48;7.50;;;4.18;;
61785;SDS011;47692;53.714;11.372;2023-03-11T01:11:13;8.52;;;3.72;;
61785;SDS011;47692;53.714;11.372;2023-03-11T01:13:39;8.05;;;4.10;;
61785;SDS011;47692;53.714;11.372;2023-03-11T01:16:04;8.65;;;4.10;;
61785;SDS011;47692;53.714;11.372;2023-03-11T01:18:31;8.20;;;3.85;;
61785;SDS011;47692;53.714;11.372;2023-03-11T01:20:57;7.70;;;4.45;;
61785;SDS011;47692;53.714;11.372;2023-03-11T01:23:22;6.03;;;3.88;;
61785;SDS011;47692;53.714;11.372;2023-03-11T01:25:48;8.60;;;4.32;;
61785;SDS011;47692;53.714;11.372;2023-03-11T01:28:13;7.50;;;3.95;;
61785;SDS011;47692;53.714;11.372;2023-03-11T01:30:39;12.20;;;4.03;;
61785;SDS011;47692;53.714;11.372;2023-03-11T01:33:06;8.00;;;4.28;;
61785;SDS011;47692;53.714;11.372;2023-03-11T01:35:32;8.02;;;3.70;;
61785;SDS011;47692;53.714;11.372;2023-03-11T01:37:59;9.23;;;4.10;;
61785;SDS011;47692;53.714;11.372;2023-03-11T01:40:29;8.20;;;4.32;;
61785;SDS011;47692;53.714;11.372;2023-03-11T01:42:57;7.75;;;4.50;;
61785;SDS011;47692;53.714;11.372;2023-03-11T01:45:32;7.80;;;3.88;;
61785;SDS011;47692;53.714;11.372;2023-03-11T01:47:59;8.13;;;4.32;;
61785;SDS011;47692;53.714;11.372;2023-03-11T01:50:26;7.65;;;4.18;;
61785;SDS011;47692;53.714;11.372;2023-03-11T01:52:56;8.23;;;5.03;;
61785;SDS011;47692;53.714;11.372;2023-03-11T01:55:22;11.25;;;4.40;;
61785;SDS011;47692;53.714;11.372;2023-03-11T01:57:47;15.55;;;5.13;;
61785;SDS011;47692;53.714;11.372;2023-03-11T02:00:14;11.07;;;4.38;;
61785;SDS011;47692;53.714;11.372;2023-03-11T02:02:41;7.68;;;4.22;;
61785;SDS011;47692;53.714;11.372;2023-03-11T02:05:10;10.40;;;4.95;;
61785;SDS011;47692;53.714;11.372;2023-03-11T02:07:39;7.70;;;3.97;;
61785;SDS011;47692;53.714;11.372;2023-03-11T02:10:05;6.80;;;4.18;;
61785;SDS011;47692;53.714;11.372;2023-03-11T02:12:33;8.73;;;4.28;;
61785;SDS011;47692;53.714;11.372;2023-03-11T02:15:00;9.77;;;4.30;;
61785;SDS011;47692;53.714;11.372;2023-03-11T02:17:26;7.45;;;4.32;;
61785;SDS011;47692;53.714;11.372;2023-03-11T02:19:58;9.63;;;3.63;;
61785;SDS011;47692;53.714;11.372;2023-03-11T02:22:34;11.85;;;4.45;;
61785;SDS011;47692;53.714;11.372;2023-03-11T02:25:09;8.07;;;3.50;;
61785;SDS011;47692;53.714;11.372;2023-03-11T02:27:42;6.85;;;3.72;;
61785;SDS011;47692;53.714;11.372;2023-03-11T02:30:11;10.27;;;3.65;;
61785;SDS011;47692;53.714;11.372;2023-03-11T02:32:37;10.02;;;3.90;;
61785;SDS011;47692;53.714;11.372;2023-03-11T02:35:04;11.95;;;3.92;;
61785;SDS011;47692;53.714;11.372;2023-03-11T02:37:30;6.80;;;3.30;;
61785;SDS011;47692;53.714;11.372;2023-03-11T02:40:11;7.70;;;3.63;;
61785;SDS011;47692;53.714;11.372;2023-03-11T02:42:41;8.20;;;3.85;;
61785;SDS011;47692;53.714;11.372;2023-03-11T02:45:10;7.18;;;3.60;;
61785;SDS011;47692;53.714;11.372;2023-03-11T02:47:38;7.60;;;3.70;;
61785;SDS011;47692;53.714;11.372;2023-03-11T02:50:05;6.10;;;3.45;;
61785;SDS011;47692;53.714;11.372;2023-03-11T02:52:33;7.22;;;3.00;;
61785;SDS011;47692;53.714;11.372;2023-03-11T02:54:59;6.85;;;3.47;;
61785;SDS011;47692;53.714;11.372;2023-03-11T02:57:25;10.73;;;3.88;;
61785;SDS011;47692;53.714;11.372;2023-03-11T02:59:51;8.57;;;4.00;;
61785;SDS011;47692;53.714;11.372;2023-03-11T03:02:16;6.18;;;3.10;;
61785;SDS011;47692;53.714;11.372;2023-03-11T03:04:42;5.72;;;2.90;;
61785;SDS011;47692;53.714;11.372;2023-03-11T03:07:08;5.32;;;2.97;;
61785;SDS011;47692;53.714;11.372;2023-03-11T03:09:34;6.90;;;2.92;;
61785;SDS011;47692;53.714;11.372;2023-03-11T03:12:00;5.50;;;2.88;;
61785;SDS011;47692;53.714;11.372;2023-03-11T03:14:26;4.82;;;2.65;;
61785;SDS011;47692;53.714;11.372;2023-03-11T03:16:52;4.43;;;2.67;;
61785;SDS011;47692;53.714;11.372;2023-03-11T03:19:18;7.80;;;2.80;;
61785;SDS011;47692;53.714;11.372;2023-03-11T03:21:43;6.90;;;2.50;;
61785;SDS011;47692;53.714;11.372;2023-03-11T03:24:09;5.65;;;3.15;;
61785;SDS011;47692;53.714;11.372;2023-03-11T03:26:34;5.65;;;3.50;;
61785;SDS011;47692;53.714;11.372;2023-03-11T03:29:00;5.38;;;2.90;;
61785;SDS011;47692;53.714;11.372;2023-03-11T03:31:25;6.68;;;3.33;;
61785;SDS011;47692;53.714;11.372;2023-03-11T03:33:51;7.25;;;3.22;;
61785;SDS011;47692;53.714;11.372;2023-03-11T03:36:16;6.38;;;3.40;;
61785;SDS011;47692;53.714;11.372;2023-03-11T03:38:41;6.10;;;2.75;;
61785;SDS011;47692;53.714;11.372;2023-03-11T03:41:07;5.53;;;2.88;;
61785;SDS011;47692;53.714;11.372;2023-03-11T03:43:32;5.43;;;2.70;;
61785;SDS011;47692;53.714;11.372;2023-03-11T03:45:59;5.43;;;3.25;;
61785;SDS011;47692;53.714;11.372;2023-03-11T03:48:26;6.75;;;3.20;;
61785;SDS011;47692;53.714;11.372;2023-03-11T03:50:52;4.15;;;2.97;;
61785;SDS011;47692;53.714;11.372;2023-03-11T03:53:17;10.02;;;4.28;;
61785;SDS011;47692;53.714;11.372;2023-03-11T03:55:43;5.22;;;3.38;;
61785;SDS011;47692;53.714;11.372;2023-03-11T03:58:08;5.55;;;3.30;;
61785;SDS011;47692;53.714;11.372;2023-03-11T04:00:34;5.15;;;3.05;;
61785;SDS011;47692;53.714;11.372;2023-03-11T04:02:59;5.40;;;3.60;;
61785;SDS011;47692;53.714;11.372;2023-03-11T04:05:25;9.00;;;4.30;;
61785;SDS011;47692;53.714;11.372;2023-03-11T04:07:51;8.60;;;4.03;;
61785;SDS011;47692;53.714;11.372;2023-03-11T04:10:17;8.38;;;4.20;;
61785;SDS011;47692;53.714;11.372;2023-03-11T04:12:43;7.57;;;3.90;;
61785;SDS011;47692;53.714;11.372;2023-03-11T04:15:08;8.32;;;4.00;;
61785;SDS011;47692;53.714;11.372;2023-03-11T04:17:34;8.05;;;4.22;;
61785;SDS011;47692;53.714;11.372;2023-03-11T04:20:00;9.18;;;4.90;;
61785;SDS011;47692;53.714;11.372;2023-03-11T04:22:25;8.88;;;5.13;;
61785;SDS011;47692;53.714;11.372;2023-03-11T04:24:51;9.15;;;4.38;;
61785;SDS011;47692;53.714;11.372;2023-03-11T04:27:16;7.72;;;4.47;;
61785;SDS011;47692;53.714;11.372;2023-03-11T04:29:41;9.02;;;5.03;;
61785;SDS011;47692;53.714;11.372;2023-03-11T04:32:07;7.88;;;4.65;;
61785;SDS011;47692;53.714;11.372;2023-03-11T04:34:32;8.82;;;4.65;;
61785;SDS011;47692;53.714;11.372;2023-03-11T04:36:57;8.73;;;4.80;;
61785;SDS011;47692;53.714;11.372;2023-03-11T04:39:23;10.65;;;4.78;;
61785;SDS011;47692;53.714;11.372;2023-03-11T04:41:48;11.07;;;4.93;;
61785;SDS011;47692;53.714;11.372;2023-03-11T04:44:13;8.73;;;4.60;;
61785;SDS011;47692;53.714;11.372;2023-03-11T04:46:39;8.73;;;4.35;;
61785;SDS011;47692;53.714;11.372;2023-03-11T04:49:04;10.35;;;5.10;;
61785;SDS011;47692;53.714;11.372;2023-03-11T04:51:29;9.07;;;4.43;;
61785;SDS011;47692;53.714;11.372;2023-03-11T04:53:55;11.20;;;4.72;;
61785;SDS011;47692;53.714;11.372;2023-03-11T04:56:20;7.60;;;4.55;;
61785;SDS011;47692;53.714;11.372;2023-03-11T04:58:46;10.32;;;5.00;;
61785;SDS011;47692;53.714;11.372;2023-03-11T05:01:11;14.52;;;4.72;;
61785;SDS011;47692;53.714;11.372;2023-03-11T05:03:36;7.55;;;4.57;;
61785;SDS011;47692;53.714;11.372;2023-03-11T05:06:02;8.45;;;4.47;;
61785;SDS011;47692;53.714;11.372;2023-03-11T05:08:27;8.50;;;4.30;;
61785;SDS011;47692;53.714;11.372;2023-03-11T05:10:52;7.45;;;4.20;;
61785;SDS011;47692;53.714;11.372;2023-03-11T05:13:18;7.78;;;4.35;;
61785;SDS011;47692;53.714;11.372;2023-03-11T05:15:45;8.63;;;5.15;;
61785;SDS011;47692;53.714;11.372;2023-03-11T05:18:11;7.93;;;4.18;;
61785;SDS011;47692;53.714;11.372;2023-03-11T05:20:36;8.52;;;4.55;;
61785;SDS011;47692;53.714;11.372;2023-03-11T05:23:02;8.40;;;4.10;;
61785;SDS011;47692;53.714;11.372;2023-03-11T05:25:29;8.50;;;4.82;;
61785;SDS011;47692;53.714;11.372;2023-03-11T05:27:54;7.47;;;4.03;;
61785;SDS011;47692;53.714;11.372;2023-03-11T05:30:20;8.95;;;4.70;;
61785;SDS011;47692;53.714;11.372;2023-03-11T05:32:45;7.47;;;4.45;;
61785;SDS011;47692;53.714;11.372;2023-03-11T05:35:11;9.23;;;4.30;;
61785;SDS011;47692;53.714;11.372;2023-03-11T05:37:36;9.27;;;4.45;;
61785;SDS011;47692;53.714;11.372;2023-03-11T05:40:03;13.05;;;4.53;;
61785;SDS011;47692;53.714;11.372;2023-03-11T05:42:32;8.57;;;5.05;;
61785;SDS011;47692;53.714;11.372;2023-03-11T05:44:58;9.75;;;5.18;;
61785;SDS011;47692;53.714;11.372;2023-03-11T05:47:23;9.32;;;5.20;;
61785;SDS011;47692;53.714;11.372;2023-03-11T05:49:49;11.82;;;5.50;;
61785;SDS011;47692;53.714;11.372;2023-03-11T05:52:14;10.90;;;4.25;;
61785;SDS011;47692;53.714;11.372;2023-03-11T05:54:40;10.10;;;4.97;;
61785;SDS011;47692;53.714;11.372;2023-03-11T05:57:05;11.00;;;5.22;;
61785;SDS011;47692;53.714;11.372;2023-03-11T05:59:31;12.75;;;5.47;;
61785;SDS011;47692;53.714;11.372;2023-03-11T06:01:57;10.25;;;5.15;;
61785;SDS011;47692;53.714;11.372;2023-03-11T06:04:22;9.63;;;4.72;;
61785;SDS011;47692;53.714;11.372;2023-03-11T06:06:48;10.90;;;6.05;;
61785;SDS011;47692;53.714;11.372;2023-03-11T06:09:13;10.07;;;5.80;;
61785;SDS011;47692;53.714;11.372;2023-03-11T06:11:39;8.73;;;5.47;;
61785;SDS011;47692;53.714;11.372;2023-03-11T06:14:05;9.23;;;5.78;;
61785;SDS011;47692;53.714;11.372;2023-03-11T06:16:30;8.80;;;5.50;;
61785;SDS011;47692;53.714;11.372;2023-03-11T06:18:55;10.45;;;5.65;;
61785;SDS011;47692;53.714;11.372;2023-03-11T06:21:22;11.85;;;6.13;;
61785;SDS011;47692;53.714;11.372;2023-03-11T06:23:48;10.13;;;5.28;;
61785;SDS011;47692;53.714;11.372;2023-03-11T06:26:15;10.95;;;5.43;;
61785;SDS011;47692;53.714;11.372;2023-03-11T06:28:43;12.55;;;5.82;;
61785;SDS011;47692;53.714;11.372;2023-03-11T06:31:10;10.38;;;6.30;;
61785;SDS011;47692;53.714;11.372;2023-03-11T06:33:38;9.45;;;5.65;;
61785;SDS011;47692;53.714;11.372;2023-03-11T06:36:04;13.68;;;6.25;;
61785;SDS011;47692;53.714;11.372;2023-03-11T06:38:30;12.82;;;5.82;;
61785;SDS011;47692;53.714;11.372;2023-03-11T06:40:59;10.32;;;5.95;;
61785;SDS011;47692;53.714;11.372;2023-03-11T06:43:26;11.38;;;5.88;;
61785;SDS011;47692;53.714;11.372;2023-03-11T06:45:51;12.68;;;6.30;;
61785;SDS011;47692;53.714;11.372;2023-03-11T06:48:17;12.25;;;6.63;;
61785;SDS011;47692;53.714;11.372;2023-03-11T06:50:42;11.45;;;7.10;;
61785;SDS011;47692;53.714;11.372;2023-03-11T06:53:08;11.68;;;7.13;;
61785;SDS011;47692;53.714;11.372;2023-03-11T06:55:33;12.32;;;7.30;;
61785;SDS011;47692;53.714;11.372;2023-03-11T06:57:59;14.45;;;8.43;;
61785;SDS011;47692;53.714;11.372;2023-03-11T07:00:25;16.25;;;8.30;;
61785;SDS011;47692;53.714;11.372;2023-03-11T07:02:50;14.25;;;8.40;;
61785;SDS011;47692;53.714;11.372;2023-03-11T07:05:16;13.13;;;7.57;;
61785;SDS011;47692;53.714;11.372;2023-03-11T07:07:42;15.70;;;9.15;;
61785;SDS011;47692;53.714;11.372;2023-03-11T07:10:07;18.42;;;8.45;;
61785;SDS011;47692;53.714;11.372;2023-03-11T07:12:33;19.88;;;8.32;;
61785;SDS011;47692;53.714;11.372;2023-03-11T07:14:59;14.57;;;8.45;;
61785;SDS011;47692;53.714;11.372;2023-03-11T07:17:25;15.35;;;8.73;;
61785;SDS011;47692;53.714;11.372;2023-03-11T07:19:51;14.75;;;7.43;;
61785;SDS011;47692;53.714;11.372;2023-03-11T07:22:17;16.10;;;8.68;;
61785;SDS011;47692;53.714;11.372;2023-03-11T07:24:46;13.77;;;8.02;;
61785;SDS011;47692;53.714;11.372;2023-03-11T07:27:12;14.70;;;7.50;;
61785;SDS011;47692;53.714;11.372;2023-03-11T07:29:38;16.27;;;7.75;;
61785;SDS011;47692;53.714;11.372;2023-03-11T07:32:03;16.45;;;8.52;;
61785;SDS011;47692;53.714;11.372;2023-03-11T07:34:31;13.40;;;7.35;;
61785;SDS011;47692;53.714;11.372;2023-03-11T07:36:56;15.13;;;7.57;;
61785;SDS011;47692;53.714;11.372;2023-03-11T07:39:21;13.90;;;7.90;;
61785;SDS011;47692;53.714;11.372;2023-03-11T07:41:47;15.60;;;8.13;;
61785;SDS011;47692;53.714;11.372;2023-03-11T07:44:12;17.73;;;8.05;;
61785;SDS011;47692;53.714;11.372;2023-03-11T07:46:39;14.25;;;7.03;;
61785;SDS011;47692;53.714;11.372;2023-03-11T07:49:05;16.77;;;8.00;;
61785;SDS011;47692;53.714;11.372;2023-03-11T07:51:32;14.93;;;7.60;;
61785;SDS011;47692;53.714;11.372;2023-03-11T07:53:59;16.17;;;7.95;;
61785;SDS011;47692;53.714;11.372;2023-03-11T07:56:26;14.00;;;8.00;;
61785;SDS011;47692;53.714;11.372;2023-03-11T07:58:53;15.43;;;7.97;;
61785;SDS011;47692;53.714;11.372;2023-03-11T08:01:23;13.88;;;7.03;;
61785;SDS011;47692;53.714;11.372;2023-03-11T08:03:51;12.55;;;7.15;;
61785;SDS011;47692;53.714;11.372;2023-03-11T08:06:24;16.75;;;8.18;;
61785;SDS011;47692;53.714;11.372;2023-03-11T08:08:51;14.57;;;7.53;;
61785;SDS011;47692;53.714;11.372;2023-03-11T08:11:17;15.20;;;7.50;;
61785;SDS011;47692;53.714;11.372;2023-03-11T08:13:44;13.20;;;6.80;;
61785;SDS011;47692;53.714;11.372;2023-03-11T08:16:11;13.88;;;7.97;;
61785;SDS011;47692;53.714;11.372;2023-03-11T08:18:41;14.48;;;7.70;;
61785;SDS011;47692;53.714;11.372;2023-03-11T08:21:08;19.17;;;8.73;;
61785;SDS011;47692;53.714;11.372;2023-03-11T08:23:36;16.67;;;8.05;;
61785;SDS011;47692;53.714;11.372;2023-03-11T08:26:06;20.88;;;9.35;;
61785;SDS011;47692;53.714;11.372;2023-03-11T08:28:32;14.88;;;8.20;;
61785;SDS011;47692;53.714;11.372;2023-03-11T08:30:59;16.88;;;8.20;;
61785;SDS011;47692;53.714;11.372;2023-03-11T08:33:24;13.68;;;7.25;;
61785;SDS011;47692;53.714;11.372;2023-03-11T08:35:49;15.45;;;7.30;;
61785;SDS011;47692;53.714;11.372;2023-03-11T08:38:15;13.75;;;7.95;;
61785;SDS011;47692;53.714;11.372;2023-03-11T08:40:40;14.38;;;7.40;;
61785;SDS011;47692;53.714;11.372;2023-03-11T08:43:05;14.68;;;6.70;;
61785;SDS011;47692;53.714;11.372;2023-03-11T08:45:31;11.90;;;6.60;;
61785;SDS011;47692;53.714;11.372;2023-03-11T08:47:57;11.93;;;6.68;;
61785;SDS011;47692;53.714;11.372;2023-03-11T08:50:22;12.73;;;6.10;;
61785;SDS011;47692;53.714;11.372;2023-03-11T08:52:48;12.55;;;6.57;;
61785;SDS011;47692;53.714;11.372;2023-03-11T08:55:14;15.05;;;6.35;;
61785;SDS011;47692;53.714;11.372;2023-03-11T08:57:42;12.60;;;6.55;;
61785;SDS011;47692;53.714;11.372;2023-03-11T09:00:08;11.70;;;6.07;;
61785;SDS011;47692;53.714;11.372;2023-03-11T09:02:36;12.18;;;5.90;;
61785;SDS011;47692;53.714;11.372;2023-03-11T09:05:01;10.70;;;5.97;;
61785;SDS011;47692;53.714;11.372;2023-03-11T09:07:27;12.85;;;5.53;;
61785;SDS011;47692;53.714;11.372;2023-03-11T09:09:52;12.00;;;6.60;;
61785;SDS011;47692;53.714;11.372;2023-03-11T09:12:18;10.23;;;5.18;;
61785;SDS011;47692;53.714;11.372;2023-03-11T09:14:44;12.20;;;6.75;;
61785;SDS011;47692;53.714;11.372;2023-03-11T09:17:10;10.98;;;5.88;;
61785;SDS011;47692;53.714;11.372;2023-03-11T09:19:36;11.38;;;5.97;;
61785;SDS011;47692;53.714;11.372;2023-03-11T09:22:02;13.27;;;6.35;;
61785;SDS011;47692;53.714;11.372;2023-03-11T09:24:28;12.65;;;6.05;;
61785;SDS011;47692;53.714;11.372;2023-03-11T09:26:53;10.40;;;5.60;;
61785;SDS011;47692;53.714;11.372;2023-03-11T09:29:19;9.80;;;4.45;;
61785;SDS011;47692;53.714;11.372;2023-03-11T09:31:45;11.45;;;5.47;;
61785;SDS011;47692;53.714;11.372;2023-03-11T09:34:10;10.40;;;5.72;;
61785;SDS011;47692;53.714;11.372;2023-03-11T09:36:37;10.65;;;4.78;;
61785;SDS011;47692;53.714;11.372;2023-03-11T09:39:05;9.95;;;5.28;;
61785;SDS011;47692;53.714;11.372;2023-03-11T09:41:35;12.38;;;4.95;;
61785;SDS011;47692;53.714;11.372;2023-03-11T09:44:17;12.98;;;4.45;;
61785;SDS011;47692;53.714;11.372;2023-03-11T09:47:04;8.30;;;4.43;;
61785;SDS011;47692;53.714;11.372;2023-03-11T09:50:24;9.05;;;5.07;;
61785;SDS011;47692;53.714;11.372;2023-03-11T09:55:24;7.60;;;4.57;;
61785;SDS011;47692;53.714;11.372;2023-03-11T09:57:51;10.60;;;4.75;;
61785;SDS011;47692;53.714;11.372;2023-03-11T10:00:18;9.57;;;4.38;;
61785;SDS011;47692;53.714;11.372;2023-03-11T10:02:46;6.57;;;3.90;;
61785;SDS011;47692;53.714;11.372;2023-03-11T10:05:17;8.55;;;4.35;;
61785;SDS011;47692;53.714;11.372;2023-03-11T10:07:45;6.40;;;3.92;;
61785;SDS011;47692;53.714;11.372;2023-03-11T10:10:15;8.65;;;4.25;;
61785;SDS011;47692;53.714;11.372;2023-03-11T10:12:51;8.98;;;4.13;;
61785;SDS011;47692;53.714;11.372;2023-03-11T10:15:23;6.60;;;4.10;;
61785;SDS011;47692;53.714;11.372;2023-03-11T10:26:28;7.82;;;4.00;;
61785;SDS011;47692;53.714;11.372;2023-03-11T10:34:38;7.05;;;3.70;;
61785;SDS011;47692;53.714;11.372;2023-03-11T10:37:13;7.40;;;3.78;;
61785;SDS011;47692;53.714;11.372;2023-03-11T10:39:45;8.38;;;3.72;;
61785;SDS011;47692;53.714;11.372;2023-03-11T10:42:12;6.63;;;3.28;;
61785;SDS011;47692;53.714;11.372;2023-03-11T10:44:41;5.65;;;3.22;;
61785;SDS011;47692;53.714;11.372;2023-03-11T10:47:23;7.85;;;3.83;;
61785;SDS011;47692;53.714;11.372;2023-03-11T10:49:49;5.97;;;3.00;;
61785;SDS011;47692;53.714;11.372;2023-03-11T10:52:16;5.93;;;3.05;;
61785;SDS011;47692;53.714;11.372;2023-03-11T10:54:47;5.40;;;2.97;;
61785;SDS011;47692;53.714;11.372;2023-03-11T10:57:32;4.60;;;2.72;;
61785;SDS011;47692;53.714;11.372;2023-03-11T11:00:00;4.72;;;2.95;;
61785;SDS011;47692;53.714;11.372;2023-03-11T11:02:49;4.70;;;2.60;;
61785;SDS011;47692;53.714;11.372;2023-03-11T11:07:41;4.88;;;2.92;;
61785;SDS011;47692;53.714;11.372;2023-03-11T11:12:52;5.45;;;2.33;;
61785;SDS011;47692;53.714;11.372;2023-03-11T11:15:34;4.88;;;2.45;;
61785;SDS011;47692;53.714;11.372;2023-03-11T11:18:04;8.27;;;2.60;;
61785;SDS011;47692;53.714;11.372;2023-03-11T11:20:31;3.42;;;2.17;;
61785;SDS011;47692;53.714;11.372;2023-03-11T11:22:59;2.85;;;1.92;;
61785;SDS011;47692;53.714;11.372;2023-03-11T11:25:27;3.00;;;1.92;;
61785;SDS011;47692;53.714;11.372;2023-03-11T11:27:56;2.88;;;1.80;;
61785;SDS011;47692;53.714;11.372;2023-03-11T11:30:24;3.05;;;1.83;;
61785;SDS011;47692;53.714;11.372;2023-03-11T11:32:50;5.03;;;2.00;;
61785;SDS011;47692;53.714;11.372;2023-03-11T11:35:18;3.15;;;1.48;;
61785;SDS011;47692;53.714;11.372;2023-03-11T11:37:46;2.42;;;1.70;;
61785;SDS011;47692;53.714;11.372;2023-03-11T11:42:40;3.08;;;1.75;;
61785;SDS011;47692;53.714;11.372;2023-03-11T11:45:15;3.45;;;2.08;;
61785;SDS011;47692;53.714;11.372;2023-03-11T11:47:48;3.33;;;1.80;;
61785;SDS011;47692;53.714;11.372;2023-03-11T11:50:25;4.88;;;2.13;;
61785;SDS011;47692;53.714;11.372;2023-03-11T11:52:59;4.40;;;1.83;;
61785;SDS011;47692;53.714;11.372;2023-03-11T11:55:49;2.83;;;1.60;;
61785;SDS011;47692;53.714;11.372;2023-03-11T11:58:19;3.50;;;1.70;;
61785;SDS011;47692;53.714;11.372;2023-03-11T12:00:51;3.50;;;1.88;;
61785;SDS011;47692;53.714;11.372;2023-03-11T12:06:18;3.97;;;1.90;;
61785;SDS011;47692;53.714;11.372;2023-03-11T12:08:58;3.75;;;1.75;;
61785;SDS011;47692;53.714;11.372;2023-03-11T12:11:35;3.28;;;1.67;;
61785;SDS011;47692;53.714;11.372;2023-03-11T12:14:15;4.68;;;2.05;;
61785;SDS011;47692;53.714;11.372;2023-03-11T12:17:00;3.63;;;1.92;;
61785;SDS011;47692;53.714;11.372;2023-03-11T12:22:44;2.97;;;1.55;;
61785;SDS011;47692;53.714;11.372;2023-03-11T12:25:27;2.70;;;1.50;;
61785;SDS011;47692;53.714;11.372;2023-03-11T12:28:03;4.50;;;2.00;;
61785;SDS011;47692;53.714;11.372;2023-03-11T12:30:42;4.32;;;1.70;;
61785;SDS011;47692;53.714;11.372;2023-03-11T12:35:35;3.05;;;1.70;;
61785;SDS011;47692;53.714;11.372;2023-03-11T12:45:57;3.45;;;1.70;;
61785;SDS011;47692;53.714;11.372;2023-03-11T12:53:57;4.45;;;2.00;;
61785;SDS011;47692;53.714;11.372;2023-03-11T13:10:18;3.40;;;1.90;;
61785;SDS011;47692;53.714;11.372;2023-03-11T13:12:57;3.78;;;1.90;;
61785;SDS011;47692;53.714;11.372;2023-03-11T13:15:30;4.85;;;1.75;;
61785;SDS011;47692;53.714;11.372;2023-03-11T13:33:55;3.80;;;1.42;;
61785;SDS011;47692;53.714;11.372;2023-03-11T13:39:20;2.25;;;1.30;;
61785;SDS011;47692;53.714;11.372;2023-03-11T13:41:52;4.55;;;1.40;;
61785;SDS011;47692;53.714;11.372;2023-03-11T13:46:47;3.65;;;1.25;;
61785;SDS011;47692;53.714;11.372;2023-03-11T13:51:57;9.75;;;5.13;;
61785;SDS011;47692;53.714;11.372;2023-03-11T13:54:29;40.85;;;19.13;;
61785;SDS011;47692;53.714;11.372;2023-03-11T13:57:00;38.75;;;16.48;;
61785;SDS011;47692;53.714;11.372;2023-03-11T13:59:30;157.38;;;56.08;;
61785;SDS011;47692;53.714;11.372;2023-03-11T14:04:32;39.53;;;22.02;;
61785;SDS011;47692;53.714;11.372;2023-03-11T14:07:10;15.88;;;9.60;;
61785;SDS011;47692;53.714;11.372;2023-03-11T14:09:37;11.93;;;5.85;;
61785;SDS011;47692;53.714;11.372;2023-03-11T14:12:03;4.38;;;2.30;;
61785;SDS011;47692;53.714;11.372;2023-03-11T14:17:13;6.32;;;2.03;;
61785;SDS011;47692;53.714;11.372;2023-03-11T14:19:40;6.18;;;2.72;;
61785;SDS011;47692;53.714;11.372;2023-03-11T14:22:07;5.10;;;1.65;;
61785;SDS011;47692;53.714;11.372;2023-03-11T14:24:33;2.88;;;1.20;;
61785;SDS011;47692;53.714;11.372;2023-03-11T14:27:01;2.00;;;1.33;;
61785;SDS011;47692;53.714;11.372;2023-03-11T14:29:32;5.75;;;2.20;;
61785;SDS011;47692;53.714;11.372;2023-03-11T14:34:40;3.50;;;1.63;;
61785;SDS011;47692;53.714;11.372;2023-03-11T14:37:14;4.57;;;1.50;;
61785;SDS011;47692;53.714;11.372;2023-03-11T14:40:21;3.67;;;2.10;;
61785;SDS011;47692;53.714;11.372;2023-03-11T14:42:49;3.55;;;1.92;;
61785;SDS011;47692;53.714;11.372;2023-03-11T14:45:18;1.95;;;1.27;;
61785;SDS011;47692;53.714;11.372;2023-03-11T14:48:08;1.85;;;1.05;;
61785;SDS011;47692;53.714;11.372;2023-03-11T14:50:40;5.78;;;2.05;;
61785;SDS011;47692;53.714;11.372;2023-03-11T14:53:11;4.03;;;1.52;;
61785;SDS011;47692;53.714;11.372;2023-03-11T14:55:40;3.97;;;1.60;;
61785;SDS011;47692;53.714;11.372;2023-03-11T14:58:18;3.92;;;1.20;;
61785;SDS011;47692;53.714;11.372;2023-03-11T15:01:03;4.70;;;1.48;;
61785;SDS011;47692;53.714;11.372;2023-03-11T15:03:34;2.63;;;1.30;;
61785;SDS011;47692;53.714;11.372;2023-03-11T15:06:16;5.18;;;1.35;;
61785;SDS011;47692;53.714;11.372;2023-03-11T15:13:42;4.75;;;1.25;;
61785;SDS011;47692;53.714;11.372;2023-03-11T15:18:48;7.43;;;1.50;;
61785;SDS011;47692;53.714;11.372;2023-03-11T15:21:15;3.30;;;1.00;;
61785;SDS011;47692;53.714;11.372;2023-03-11T15:23:52;4.55;;;1.13;;
61785;SDS011;47692;53.714;11.372;2023-03-11T15:26:24;6.72;;;3.13;;
61785;SDS011;47692;53.714;11.372;2023-03-11T15:28:53;3.10;;;2.17;;
61785;SDS011;47692;53.714;11.372;2023-03-11T15:33:48;4.85;;;1.20;;
61785;SDS011;47692;53.714;11.372;2023-03-11T15:36:34;3.17;;;0.85;;
61785;SDS011;47692;53.714;11.372;2023-03-11T15:44:34;4.63;;;1.20;;
61785;SDS011;47692;53.714;11.372;2023-03-11T15:47:16;1.50;;;0.90;;
61785;SDS011;47692;53.714;11.372;2023-03-11T15:49:43;3.03;;;1.00;;
61785;SDS011;47692;53.714;11.372;2023-03-11T15:52:09;2.53;;;0.73;;
61785;SDS011;47692;53.714;11.372;2023-03-11T15:54:35;2.90;;;0.82;;
61785;SDS011;47692;53.714;11.372;2023-03-11T15:57:03;5.45;;;1.23;;
61785;SDS011;47692;53.714;11.372;2023-03-11T15:59:31;1.52;;;0.90;;
61785;SDS011;47692;53.714;11.372;2023-03-11T16:01:58;3.20;;;1.00;;
61785;SDS011;47692;53.714;11.372;2023-03-11T16:04:23;5.70;;;1.08;;
61785;SDS011;47692;53.714;11.372;2023-03-11T16:06:49;4.78;;;1.45;;
61785;SDS011;47692;53.714;11.372;2023-03-11T16:09:15;2.28;;;0.70;;
61785;SDS011;47692;53.714;11.372;2023-03-11T16:11:41;2.20;;;0.90;;
61785;SDS011;47692;53.714;11.372;2023-03-11T16:14:18;1.55;;;0.90;;
61785;SDS011;47692;53.714;11.372;2023-03-11T16:16:45;3.20;;;0.90;;
61785;SDS011;47692;53.714;11.372;2023-03-11T16:19:11;6.22;;;1.42;;
61785;SDS011;47692;53.714;11.372;2023-03-11T16:21:38;2.45;;;1.00;;
61785;SDS011;47692;53.714;11.372;2023-03-11T16:24:06;3.63;;;1.75;;